createdAt,value
2023-05-20T00:00:53.952Z,7.12
2023-05-20T00:03:21.875Z,7.22
2023-05-20T00:05:49.465Z,7.57
2023-05-20T00:08:18.806Z,6.93
2023-05-20T00:10:46.503Z,6.80
2023-05-20T00:13:13.982Z,6.70
2023-05-20T00:15:41.423Z,6.60
2023-05-20T00:18:09.197Z,6.68
2023-05-20T00:20:36.634Z,6.93
2023-05-20T00:23:04.153Z,7.22
2023-05-20T00:25:32.684Z,7.60
2023-05-20T00:28:00.380Z,7.65
2023-05-20T00:30:27.992Z,7.95
2023-05-20T00:32:55.781Z,8.48
2023-05-20T00:35:23.357Z,8.23
2023-05-20T00:37:50.856Z,7.97
2023-05-20T00:40:18.890Z,8.40
2023-05-20T00:42:46.365Z,7.95
2023-05-20T00:45:13.802Z,8.95
2023-05-20T00:47:42.640Z,9.18
2023-05-20T00:50:10.902Z,8.57
2023-05-20T00:52:41.595Z,8.98
2023-05-20T00:55:09.499Z,9.40
2023-05-20T00:57:37.072Z,7.87
2023-05-20T01:00:06.291Z,8.63
2023-05-20T01:02:34.150Z,9.02
2023-05-20T01:05:01.888Z,8.50
2023-05-20T01:07:29.494Z,7.57
2023-05-20T01:09:57.397Z,7.62
2023-05-20T01:12:29.702Z,7.18
2023-05-20T01:15:09.821Z,7.32
2023-05-20T01:17:40.399Z,7.40
2023-05-20T01:20:10.416Z,7.70
2023-05-20T01:22:39.326Z,7.25
2023-05-20T01:25:06.983Z,6.78
2023-05-20T01:27:35.902Z,7.65
2023-05-20T01:30:03.478Z,7.75
2023-05-20T01:32:41.191Z,6.97
2023-05-20T01:35:09.298Z,7.60
2023-05-20T01:37:40.854Z,7.12
2023-05-20T01:40:09.213Z,7.82
2023-05-20T01:42:37.719Z,7.62
2023-05-20T01:45:05.862Z,7.90
2023-05-20T01:47:33.285Z,7.45
2023-05-20T01:50:01.298Z,7.95
2023-05-20T01:52:28.914Z,7.65
2023-05-20T01:54:57.572Z,7.68
2023-05-20T01:57:26.022Z,7.80
2023-05-20T01:59:53.499Z,8.13
2023-05-20T02:02:22.306Z,8.45
2023-05-20T02:04:51.577Z,8.15
2023-05-20T02:07:19.333Z,8.30
2023-05-20T02:09:47.721Z,7.70
2023-05-20T02:12:18.264Z,8.30
2023-05-20T02:14:47.368Z,8.23
2023-05-20T02:17:17.739Z,8.63
2023-05-20T02:19:46.147Z,8.18
2023-05-20T02:22:14.759Z,8.30
2023-05-20T02:24:44.547Z,8.45
2023-05-20T02:27:12.028Z,8.48
2023-05-20T02:29:39.760Z,8.02
2023-05-20T02:32:07.223Z,8.60
2023-05-20T02:34:34.709Z,7.75
2023-05-20T02:37:02.611Z,8.55
2023-05-20T02:39:30.493Z,9.20
2023-05-20T02:41:57.967Z,8.75
2023-05-20T02:44:26.537Z,8.02
2023-05-20T02:46:55.494Z,9.00
2023-05-20T02:49:24.374Z,9.15
2023-05-20T02:51:52.596Z,8.25
2023-05-20T02:54:20.086Z,8.68
2023-05-20T02:56:47.554Z,8.23
2023-05-20T02:59:15.544Z,8.57
2023-05-20T03:01:43.291Z,7.57
2023-05-20T03:04:11.676Z,7.47
2023-05-20T03:06:44.594Z,8.25
2023-05-20T03:09:12.193Z,8.10
2023-05-20T03:11:40.216Z,6.95
2023-05-20T03:14:07.645Z,8.05
2023-05-20T03:16:35.523Z,8.00
2023-05-20T03:19:03.359Z,8.07
2023-05-20T03:21:30.893Z,8.30
2023-05-20T03:23:58.415Z,7.50
2023-05-20T03:26:26.171Z,8.27
2023-05-20T03:28:53.817Z,8.40
2023-05-20T03:31:21.508Z,8.20
2023-05-20T03:33:50.457Z,7.93
2023-05-20T03:36:18.093Z,7.82
2023-05-20T03:38:45.582Z,8.82
2023-05-20T03:41:14.061Z,8.57
2023-05-20T03:43:41.633Z,7.75
2023-05-20T03:46:09.103Z,8.10
2023-05-20T03:48:36.914Z,8.43
2023-05-20T03:51:04.827Z,8.25
2023-05-20T03:53:33.819Z,8.40
2023-05-20T03:56:01.641Z,8.57
2023-05-20T03:58:31.330Z,8.50
2023-05-20T04:00:58.941Z,7.80
2023-05-20T04:03:28.914Z,7.90
2023-05-20T04:05:56.487Z,7.90
2023-05-20T04:08:26.091Z,7.80
2023-05-20T04:10:57.289Z,7.57
2023-05-20T04:13:27.755Z,7.37
2023-05-20T04:15:55.446Z,7.60
2023-05-20T04:18:22.944Z,8.38
2023-05-20T04:20:55.656Z,7.62
2023-05-20T04:23:24.013Z,6.85
2023-05-20T04:25:51.584Z,7.82
2023-05-20T04:28:19.037Z,7.82
2023-05-20T04:30:46.802Z,7.45
2023-05-20T04:33:14.937Z,7.50
2023-05-20T04:35:44.321Z,6.53
2023-05-20T04:38:12.156Z,6.82
2023-05-20T04:40:39.896Z,6.45
2023-05-20T04:43:08.049Z,6.93
2023-05-20T04:45:36.779Z,7.07
2023-05-20T04:48:06.119Z,7.45
2023-05-20T04:50:37.933Z,6.85
2023-05-20T04:53:08.870Z,6.00
2023-05-20T04:55:37.500Z,7.12
2023-05-20T04:58:05.800Z,7.90
2023-05-20T05:00:33.837Z,6.25
2023-05-20T05:03:01.616Z,6.20
2023-05-20T05:05:29.256Z,6.30
2023-05-20T05:07:57.025Z,6.40
2023-05-20T05:10:25.234Z,7.00
2023-05-20T05:12:52.724Z,6.72
2023-05-20T05:15:20.738Z,7.28
2023-05-20T05:17:48.320Z,8.10
2023-05-20T05:20:16.132Z,6.47
2023-05-20T05:22:44.627Z,6.43
2023-05-20T05:25:12.663Z,6.57
2023-05-20T05:27:40.405Z,6.45
2023-05-20T05:30:08.969Z,7.05
2023-05-20T05:32:37.218Z,6.65
2023-05-20T05:35:06.729Z,7.47
2023-05-20T05:37:35.955Z,7.10
2023-05-20T05:40:04.109Z,6.40
2023-05-20T05:42:31.768Z,6.32
2023-05-20T05:44:59.587Z,6.40
2023-05-20T05:47:32.336Z,7.18
2023-05-20T05:50:00.613Z,6.60
2023-05-20T05:52:33.754Z,6.47
2023-05-20T05:55:02.730Z,6.62
2023-05-20T05:57:30.735Z,7.03
2023-05-20T05:59:58.861Z,7.03
2023-05-20T06:02:27.424Z,6.90
2023-05-20T06:04:55.245Z,6.75
2023-05-20T06:07:23.731Z,7.15
2023-05-20T06:09:52.045Z,7.40
2023-05-20T06:12:20.237Z,7.65
2023-05-20T06:14:48.180Z,7.47
2023-05-20T06:17:15.606Z,6.87
2023-05-20T06:19:43.436Z,6.28
2023-05-20T06:22:11.164Z,6.37
2023-05-20T06:24:38.828Z,6.70
2023-05-20T06:27:07.182Z,6.97
2023-05-20T06:29:35.230Z,7.28
2023-05-20T06:32:02.872Z,7.68
2023-05-20T06:34:30.712Z,6.97
2023-05-20T06:36:58.921Z,6.50
2023-05-20T06:39:26.389Z,6.05
2023-05-20T06:41:54.284Z,6.37
2023-05-20T06:44:26.474Z,6.25
2023-05-20T06:46:54.523Z,7.12
2023-05-20T06:49:22.658Z,6.60
2023-05-20T06:51:50.555Z,6.78
2023-05-20T06:54:18.315Z,7.55
2023-05-20T06:56:46.954Z,6.85
2023-05-20T06:59:14.766Z,6.37
2023-05-20T07:01:43.496Z,6.57
2023-05-20T07:04:11.156Z,7.07
2023-05-20T07:06:38.724Z,6.97
2023-05-20T07:09:06.461Z,6.30
2023-05-20T07:11:33.912Z,6.55
2023-05-20T07:14:01.413Z,7.12
2023-05-20T07:16:30.190Z,7.53
2023-05-20T07:18:57.908Z,6.20
2023-05-20T07:21:25.554Z,7.32
2023-05-20T07:23:54.652Z,6.97
2023-05-20T07:26:22.368Z,6.47
2023-05-20T07:28:49.852Z,6.60
2023-05-20T07:31:17.576Z,6.50
2023-05-20T07:33:45.130Z,6.07
2023-05-20T07:36:13.077Z,7.22
2023-05-20T07:38:45.048Z,7.10
2023-05-20T07:41:21.293Z,7.07
2023-05-20T07:43:49.116Z,6.80
2023-05-20T07:46:18.669Z,7.15
2023-05-20T07:48:47.546Z,7.07
2023-05-20T07:51:15.879Z,6.53
2023-05-20T07:53:43.906Z,7.07
2023-05-20T07:56:11.635Z,6.87
2023-05-20T07:58:43.031Z,6.37
2023-05-20T08:01:11.681Z,7.12
2023-05-20T08:03:39.430Z,7.18
2023-05-20T08:06:11.218Z,6.20
2023-05-20T08:08:41.407Z,6.90
2023-05-20T08:11:10.075Z,7.15
2023-05-20T08:13:37.985Z,6.32
2023-05-20T08:16:06.558Z,7.15
2023-05-20T08:18:36.662Z,8.10
2023-05-20T08:21:06.548Z,7.00
2023-05-20T08:23:37.341Z,7.45
2023-05-20T08:26:07.080Z,6.70
2023-05-20T08:28:39.917Z,7.45
2023-05-20T08:31:08.147Z,6.85
2023-05-20T08:33:36.525Z,6.97
2023-05-20T08:36:04.098Z,7.07
2023-05-20T08:38:31.546Z,7.15
2023-05-20T08:40:59.747Z,8.20
2023-05-20T08:43:28.343Z,7.22
2023-05-20T08:45:56.301Z,6.72
2023-05-20T08:48:26.207Z,7.20
2023-05-20T08:50:53.868Z,7.57
2023-05-20T08:53:22.690Z,7.03
2023-05-20T08:56:01.507Z,6.97
2023-05-20T08:58:30.479Z,7.20
2023-05-20T09:01:02.204Z,7.43
2023-05-20T09:03:29.702Z,6.30
2023-05-20T09:06:04.825Z,6.82
2023-05-20T09:08:33.218Z,7.10
2023-05-20T09:11:01.068Z,7.22
2023-05-20T09:13:31.061Z,7.30
2023-05-20T09:16:01.025Z,6.65
2023-05-20T09:18:29.433Z,6.93
2023-05-20T09:20:57.311Z,6.80
2023-05-20T09:23:30.204Z,7.12
2023-05-20T09:26:02.239Z,7.22
2023-05-20T09:28:29.964Z,6.78
2023-05-20T09:31:01.563Z,8.32
2023-05-20T09:33:30.173Z,6.95
2023-05-20T09:36:05.238Z,7.70
2023-05-20T09:38:37.916Z,6.80
2023-05-20T09:41:15.323Z,6.90
2023-05-20T09:43:43.077Z,7.93
2023-05-20T09:46:11.491Z,7.47
2023-05-20T09:48:39.824Z,7.47
2023-05-20T09:51:08.186Z,7.72
2023-05-20T09:53:36.117Z,7.82
2023-05-20T09:56:04.044Z,8.18
2023-05-20T09:58:33.942Z,7.07
2023-05-20T10:01:01.966Z,7.60
2023-05-20T10:03:30.074Z,7.18
2023-05-20T10:06:34.259Z,7.50
2023-05-20T10:09:27.900Z,6.68
2023-05-20T10:12:16.953Z,7.35
2023-05-20T10:15:00.074Z,6.82
2023-05-20T10:17:45.677Z,7.47
2023-05-20T10:20:13.604Z,7.45
2023-05-20T10:22:41.147Z,6.75
2023-05-20T10:25:12.986Z,7.05
2023-05-20T10:27:45.928Z,7.60
2023-05-20T10:30:17.692Z,6.93
2023-05-20T10:32:52.633Z,6.90
2023-05-20T10:35:26.636Z,7.23
2023-05-20T10:37:56.078Z,6.97
2023-05-20T10:40:23.601Z,6.65
2023-05-20T10:42:51.097Z,7.20
2023-05-20T10:45:29.287Z,6.35
2023-05-20T10:47:58.339Z,7.37
2023-05-20T10:50:36.202Z,7.03
2023-05-20T10:53:15.931Z,6.97
2023-05-20T10:55:52.002Z,7.03
2023-05-20T10:58:22.271Z,6.40
2023-05-20T11:00:54.496Z,6.00
2023-05-20T11:03:23.001Z,6.80
2023-05-20T11:05:51.286Z,6.87
2023-05-20T11:08:28.642Z,7.20
2023-05-20T11:10:57.857Z,7.07
2023-05-20T11:13:26.432Z,6.75
2023-05-20T11:15:54.278Z,7.07
2023-05-20T11:18:22.000Z,6.32
2023-05-20T11:20:49.608Z,6.07
2023-05-20T11:23:17.012Z,6.22
2023-05-20T11:25:44.689Z,6.12
2023-05-20T11:28:15.533Z,6.95
2023-05-20T11:30:43.533Z,7.18
2023-05-20T11:33:15.942Z,6.32
2023-05-20T11:35:51.444Z,6.70
2023-05-20T11:38:20.229Z,7.35
2023-05-20T11:40:55.292Z,7.03
2023-05-20T11:43:23.871Z,6.60
2023-05-20T11:46:01.523Z,7.03
2023-05-20T11:48:29.333Z,7.15
2023-05-20T11:50:57.118Z,6.45
2023-05-20T11:53:24.882Z,7.15
2023-05-20T11:55:55.131Z,7.18
2023-05-20T11:58:27.452Z,6.90
2023-05-20T12:01:02.318Z,6.72
2023-05-20T12:03:41.854Z,7.05
2023-05-20T12:06:11.997Z,7.37
2023-05-20T12:08:39.422Z,6.30
2023-05-20T12:11:07.146Z,7.45
2023-05-20T12:13:35.442Z,6.75
2023-05-20T12:16:04.315Z,7.00
2023-05-20T12:18:32.935Z,7.12
2023-05-20T12:21:00.938Z,6.47
2023-05-20T12:23:30.794Z,6.68
2023-05-20T12:25:59.579Z,7.10
2023-05-20T12:28:27.015Z,7.03
2023-05-20T12:30:54.461Z,7.05
2023-05-20T12:33:22.310Z,6.68
2023-05-20T12:35:49.748Z,7.18
2023-05-20T12:38:17.144Z,6.70
2023-05-20T12:40:44.839Z,7.20
2023-05-20T12:43:12.206Z,7.60
2023-05-20T12:45:39.641Z,7.30
2023-05-20T12:48:07.948Z,7.20
2023-05-20T12:50:35.741Z,6.82
2023-05-20T12:53:03.453Z,6.72
2023-05-20T12:55:31.213Z,7.28
2023-05-20T12:57:58.601Z,7.75
2023-05-20T13:00:26.045Z,7.40
2023-05-20T13:02:55.362Z,6.97
2023-05-20T13:05:22.930Z,7.05
2023-05-20T13:07:50.373Z,7.28
2023-05-20T13:10:18.660Z,7.35
2023-05-20T13:12:46.404Z,7.87
2023-05-20T13:15:14.753Z,7.07
2023-05-20T13:18:02.339Z,7.07
2023-05-20T13:20:30.208Z,7.62
2023-05-20T13:22:58.154Z,7.47
2023-05-20T13:25:25.585Z,7.57
2023-05-20T13:27:53.008Z,6.70
2023-05-20T13:30:20.752Z,6.62
2023-05-20T13:32:48.181Z,6.95
2023-05-20T13:35:16.899Z,7.07
2023-05-20T13:37:45.133Z,6.93
2023-05-20T13:40:12.992Z,7.62
2023-05-20T13:42:40.457Z,7.20
2023-05-20T13:45:08.412Z,7.10
2023-05-20T13:47:36.295Z,7.28
2023-05-20T13:50:04.064Z,8.13
2023-05-20T13:52:31.798Z,7.20
2023-05-20T13:54:59.232Z,6.95
2023-05-20T13:57:26.680Z,7.35
2023-05-20T13:59:54.369Z,7.47
2023-05-20T14:02:21.815Z,7.53
2023-05-20T14:04:49.554Z,8.00
2023-05-20T14:07:16.961Z,7.78
2023-05-20T14:09:44.420Z,7.53
2023-05-20T14:12:14.084Z,7.32
2023-05-20T14:14:41.461Z,7.28
2023-05-20T14:17:08.884Z,7.35
2023-05-20T14:19:36.673Z,7.22
2023-05-20T14:22:04.317Z,7.35
2023-05-20T14:24:31.801Z,7.20
2023-05-20T14:26:59.586Z,7.15
2023-05-20T14:29:27.086Z,7.50
2023-05-20T14:31:54.640Z,7.53
2023-05-20T14:34:22.485Z,7.43
2023-05-20T14:36:51.192Z,7.90
2023-05-20T14:39:18.634Z,7.30
2023-05-20T14:41:46.326Z,7.40
2023-05-20T14:44:13.746Z,7.22
2023-05-20T14:46:41.297Z,7.37
2023-05-20T14:49:09.032Z,7.37
2023-05-20T14:51:36.432Z,8.00
2023-05-20T14:54:03.876Z,7.87
2023-05-20T14:56:31.784Z,7.62
2023-05-20T14:58:59.173Z,7.60
2023-05-20T15:01:26.688Z,7.45
2023-05-20T15:03:54.377Z,6.93
2023-05-20T15:06:21.856Z,7.30
2023-05-20T15:08:51.957Z,6.97
2023-05-20T15:11:19.764Z,7.25
2023-05-20T15:13:48.307Z,7.70
2023-05-20T15:16:15.917Z,7.15
2023-05-20T15:18:43.740Z,7.57
2023-05-20T15:21:11.459Z,7.37
2023-05-20T15:23:38.846Z,7.03
2023-05-20T15:26:06.623Z,7.03
2023-05-20T15:28:34.080Z,7.37
2023-05-20T15:31:01.503Z,7.28
2023-05-20T15:33:29.318Z,7.55
2023-05-20T15:35:56.827Z,6.97
2023-05-20T15:38:24.293Z,6.87
2023-05-20T15:40:52.005Z,6.90
2023-05-20T15:43:19.835Z,6.87
2023-05-20T15:45:48.346Z,6.47
2023-05-20T15:48:16.469Z,7.20
2023-05-20T15:50:43.898Z,7.72
2023-05-20T15:53:11.709Z,6.93
2023-05-20T15:55:39.411Z,7.35
2023-05-20T15:58:06.883Z,8.32
2023-05-20T16:00:34.619Z,7.72
2023-05-20T16:03:02.541Z,7.65
2023-05-20T16:05:30.153Z,8.00
2023-05-20T16:07:57.724Z,7.47
2023-05-20T16:10:26.259Z,8.02
2023-05-20T16:12:53.730Z,8.05
2023-05-20T16:15:21.184Z,8.02
2023-05-20T16:17:48.987Z,8.00
2023-05-20T16:20:16.408Z,8.40
2023-05-20T16:22:43.885Z,7.60
2023-05-20T16:25:11.595Z,8.25
2023-05-20T16:27:38.983Z,7.60
2023-05-20T16:30:07.845Z,7.70
2023-05-20T16:32:35.610Z,7.70
2023-05-20T16:35:03.226Z,8.70
2023-05-20T16:37:30.768Z,8.55
2023-05-20T16:39:59.017Z,7.40
2023-05-20T16:42:26.615Z,7.95
2023-05-20T16:44:54.274Z,8.18
2023-05-20T16:47:22.005Z,7.80
2023-05-20T16:49:49.485Z,7.82
2023-05-20T16:52:17.006Z,8.07
2023-05-20T16:54:44.973Z,7.68
2023-05-20T16:57:14.100Z,8.25
2023-05-20T16:59:41.871Z,7.87
2023-05-20T17:02:09.538Z,7.62
2023-05-20T17:04:37.218Z,7.68
2023-05-20T17:07:05.055Z,7.93
2023-05-20T17:09:32.851Z,7.70
2023-05-20T17:12:00.272Z,9.00
2023-05-20T17:14:27.740Z,7.35
2023-05-20T17:16:55.546Z,8.27
2023-05-20T17:19:23.145Z,7.87
2023-05-20T17:21:50.871Z,8.00
2023-05-20T17:24:18.548Z,7.55
2023-05-20T17:26:46.077Z,7.22
2023-05-20T17:29:13.523Z,7.90
2023-05-20T17:31:41.219Z,7.68
2023-05-20T17:34:08.782Z,7.87
2023-05-20T17:36:36.360Z,7.30
2023-05-20T17:39:04.699Z,6.87
2023-05-20T17:41:32.164Z,6.70
2023-05-20T17:44:01.491Z,8.20
2023-05-20T17:46:29.547Z,6.70
2023-05-20T17:48:57.002Z,7.05
2023-05-20T17:51:24.468Z,7.18
2023-05-20T17:53:52.405Z,7.15
2023-05-20T17:56:19.836Z,7.32
2023-05-20T17:58:48.191Z,7.60
2023-05-20T18:01:16.449Z,7.65
2023-05-20T18:03:44.467Z,7.12
2023-05-20T18:06:12.422Z,7.37
2023-05-20T18:08:39.964Z,7.35
2023-05-20T18:11:07.794Z,6.95
2023-05-20T18:13:35.239Z,6.87
2023-05-20T18:16:02.914Z,7.07
2023-05-20T18:18:30.808Z,6.40
2023-05-20T18:20:58.331Z,6.80
2023-05-20T18:23:25.892Z,6.70
2023-05-20T18:25:53.726Z,6.95
2023-05-20T18:28:21.236Z,7.53
2023-05-20T18:30:49.007Z,7.10
2023-05-20T18:33:17.141Z,7.37
2023-05-20T18:35:44.742Z,7.15
2023-05-20T18:38:12.460Z,7.53
2023-05-20T18:40:40.428Z,7.18
2023-05-20T18:43:07.964Z,7.07
2023-05-20T18:45:35.680Z,7.20
2023-05-20T18:48:05.077Z,6.97
2023-05-20T18:50:32.782Z,6.93
2023-05-20T18:53:00.511Z,7.07
2023-05-20T18:55:28.358Z,6.37
2023-05-20T18:57:55.821Z,7.05
2023-05-20T19:00:23.829Z,6.57
2023-05-20T19:02:51.688Z,7.00
2023-05-20T19:05:20.089Z,6.62
2023-05-20T19:07:47.776Z,6.80
2023-05-20T19:10:15.648Z,6.57
2023-05-20T19:12:43.677Z,6.57
2023-05-20T19:15:11.343Z,7.15
2023-05-20T19:17:39.599Z,6.20
2023-05-20T19:20:07.794Z,7.25
2023-05-20T19:22:35.306Z,6.80
2023-05-20T19:25:03.359Z,6.53
2023-05-20T19:27:30.796Z,7.07
2023-05-20T19:29:58.302Z,7.15
2023-05-20T19:32:26.291Z,7.22
2023-05-20T19:34:53.845Z,6.75
2023-05-20T19:37:23.168Z,7.40
2023-05-20T19:39:51.274Z,6.97
2023-05-20T19:42:18.780Z,6.75
2023-05-20T19:44:46.705Z,6.65
2023-05-20T19:47:14.592Z,7.07
2023-05-20T19:49:42.249Z,8.15
2023-05-20T19:52:09.697Z,6.55
2023-05-20T19:54:37.429Z,7.05
2023-05-20T19:57:05.025Z,6.65
2023-05-20T19:59:32.560Z,6.82
2023-05-20T20:02:02.959Z,6.82
2023-05-20T20:04:30.818Z,9.68
2023-05-20T20:06:58.320Z,10.35
2023-05-20T20:09:25.835Z,7.07
2023-05-20T20:11:54.668Z,7.93
2023-05-20T20:14:22.114Z,7.20
2023-05-20T20:16:49.673Z,7.37
2023-05-20T20:19:23.113Z,7.55
2023-05-20T20:21:53.111Z,7.20
2023-05-20T20:24:20.859Z,8.10
2023-05-20T20:26:48.290Z,7.62
2023-05-20T20:29:15.732Z,7.85
2023-05-20T20:31:43.555Z,7.15
2023-05-20T20:34:11.261Z,7.68
2023-05-20T20:36:39.706Z,7.82
2023-05-20T20:39:08.322Z,7.30
2023-05-20T20:41:38.696Z,7.22
2023-05-20T20:44:07.243Z,7.07
2023-05-20T20:46:37.496Z,7.87
2023-05-20T20:49:04.976Z,7.37
2023-05-20T20:51:32.830Z,7.50
2023-05-20T20:54:00.666Z,6.95
2023-05-20T20:56:28.114Z,6.97
2023-05-20T20:58:57.271Z,7.30
2023-05-20T21:01:25.521Z,7.72
2023-05-20T21:03:54.690Z,6.80
2023-05-20T21:06:22.214Z,7.45
2023-05-20T21:08:49.953Z,6.72
2023-05-20T21:11:17.831Z,7.12
2023-05-20T21:13:45.329Z,6.65
2023-05-20T21:16:13.071Z,6.68
2023-05-20T21:18:40.573Z,7.35
2023-05-20T21:21:12.110Z,7.20
2023-05-20T21:23:40.733Z,7.03
2023-05-20T21:26:08.200Z,7.07
2023-05-20T21:28:35.599Z,7.68
2023-05-20T21:31:03.591Z,7.53
2023-05-20T21:33:31.110Z,6.97
2023-05-20T21:35:58.584Z,7.62
2023-05-20T21:38:26.301Z,7.03
2023-05-20T21:40:53.739Z,7.72
2023-05-20T21:43:21.184Z,7.82
2023-05-20T21:45:48.820Z,8.35
2023-05-20T21:48:16.612Z,8.07
2023-05-20T21:50:44.032Z,7.37
2023-05-20T21:53:11.692Z,7.47
2023-05-20T21:55:39.285Z,7.32
2023-05-20T21:58:06.905Z,7.35
2023-05-20T22:00:35.077Z,7.70
2023-05-20T22:03:02.979Z,7.43
2023-05-20T22:05:30.461Z,8.32
2023-05-20T22:08:00.453Z,7.32
2023-05-20T22:10:28.243Z,8.43
2023-05-20T22:12:55.802Z,8.23
2023-05-20T22:15:23.314Z,7.78
2023-05-20T22:17:51.158Z,7.32
2023-05-20T22:20:18.746Z,7.90
2023-05-20T22:22:46.273Z,7.32
2023-05-20T22:25:14.020Z,8.48
2023-05-20T22:27:43.989Z,7.85
2023-05-20T22:30:12.382Z,7.70
2023-05-20T22:32:40.473Z,8.10
2023-05-20T22:35:08.639Z,7.70
2023-05-20T22:37:36.063Z,7.62
2023-05-20T22:40:04.305Z,7.82
2023-05-20T22:42:31.917Z,7.37
2023-05-20T22:44:59.348Z,8.13
2023-05-20T22:47:27.123Z,8.25
2023-05-20T22:49:54.971Z,7.72
2023-05-20T22:52:25.375Z,8.25
2023-05-20T22:54:53.220Z,8.88
2023-05-20T22:57:20.594Z,7.72
2023-05-20T22:59:48.069Z,8.27
2023-05-20T23:02:16.028Z,8.48
2023-05-20T23:04:43.595Z,8.13
2023-05-20T23:07:14.878Z,7.85
2023-05-20T23:09:42.869Z,8.50
2023-05-20T23:12:10.572Z,8.75
2023-05-20T23:14:38.162Z,8.40
2023-05-20T23:17:06.162Z,8.27
2023-05-20T23:19:33.651Z,8.52
2023-05-20T23:22:01.604Z,8.07
2023-05-20T23:24:29.491Z,8.70
2023-05-20T23:26:56.922Z,8.70
2023-05-20T23:29:24.333Z,8.55
2023-05-20T23:31:51.970Z,8.13
2023-05-20T23:34:19.514Z,8.57
2023-05-20T23:36:47.323Z,9.70
2023-05-20T23:39:18.226Z,8.63
2023-05-20T23:41:46.074Z,8.23
2023-05-20T23:44:13.496Z,8.60
2023-05-20T23:46:41.936Z,8.20
2023-05-20T23:49:10.168Z,8.93
2023-05-20T23:51:39.791Z,9.50
2023-05-20T23:54:07.548Z,9.93
2023-05-20T23:56:35.062Z,9.02
2023-05-20T23:59:02.539Z,8.82
